Time;durP1;ratioP1;P1;durP2;ratioP2;P2;SDS_P1;SDS_P2;PMS_P1;PMS_P2;Temp;Humidity;BMP_temperature;BMP_pressure;BME280_temperature;BME280_humidity;BME280_pressure;Samples;Min_cycle;Max_cycle;Signal;HPM_P1;HPM_P2
2023/06/28 00:01:07;;;;;;;10.98;3.08;;;;;;;-142.75;100.00;76672.66;5044948;28;20025;-64
2023/06/28 00:03:32;;;;;;;7.38;2.85;;;;;;;-142.75;100.00;76674.63;5045404;28;20051;-63
2023/06/28 00:05:57;;;;;;;5.90;2.80;;;;;;;-142.75;100.00;76688.41;5045513;28;20029;-65
2023/06/28 00:08:23;;;;;;;6.70;2.80;;;;;;;-142.75;100.00;76694.31;5045732;28;20029;-64
2023/06/28 00:10:51;;;;;;;10.65;3.53;;;;;;;-142.75;100.00;76684.47;5056210;28;20480;-65
2023/06/28 00:13:17;;;;;;;9.90;3.17;;;;;;;-142.75;100.00;76696.28;5044577;28;20515;-64
2023/06/28 00:15:44;;;;;;;17.83;3.55;;;;;;;-142.75;100.00;76688.41;5044064;28;20021;-64
2023/06/28 00:18:09;;;;;;;8.80;3.50;;;;;;;-142.75;100.00;76672.66;5044615;28;20029;-64
2023/06/28 00:20:35;;;;;;;9.30;3.17;;;;;;;-142.75;100.00;76672.66;5044564;28;20036;-66
2023/06/28 00:23:00;;;;;;;9.00;3.15;;;;;;;-142.75;100.00;76674.63;5044697;28;20060;-64
2023/06/28 00:25:26;;;;;;;6.85;2.75;;;;;;;-142.75;100.00;76676.59;5044885;28;20029;-64
2023/06/28 00:27:53;;;;;;;8.90;2.90;;;;;;;-142.75;100.00;76670.69;5044386;28;20116;-63
2023/06/28 00:30:19;;;;;;;8.57;2.42;;;;;;;-142.75;100.00;76678.56;5044664;28;20039;-64
2023/06/28 00:32:44;;;;;;;11.02;3.08;;;;;;;-142.75;100.00;76676.59;5044730;28;20028;-64
2023/06/28 00:35:09;;;;;;;9.85;2.83;;;;;;;-142.75;100.00;76680.53;5053097;28;20029;-64
2023/06/28 00:37:35;;;;;;;5.22;2.72;;;;;;;-142.75;100.00;76684.47;5062920;28;20057;-64
2023/06/28 00:40:00;;;;;;;6.10;2.95;;;;;;;-142.75;100.00;76678.56;5064213;28;20111;-64
2023/06/28 00:42:26;;;;;;;6.88;2.65;;;;;;;-142.75;100.00;76682.50;5063936;28;20545;-64
2023/06/28 00:44:51;;;;;;;7.80;2.65;;;;;;;-142.75;100.00;76680.53;5063894;28;20225;-64
2023/06/28 00:47:18;;;;;;;4.93;2.17;;;;;;;-142.75;100.00;76696.28;5064470;28;20082;-64
2023/06/28 00:49:44;;;;;;;6.45;2.53;;;;;;;-142.75;100.00;76696.28;5063915;28;20028;-63
2023/06/28 00:52:11;;;;;;;6.85;2.75;;;;;;;-142.75;100.00;76690.38;5063573;28;20365;-65
2023/06/28 00:54:37;;;;;;;5.18;2.83;;;;;;;-142.75;100.00;76700.22;5064021;28;20040;-64
2023/06/28 00:57:03;;;;;;;7.32;2.70;;;;;;;-142.75;100.00;76704.16;5064106;28;20028;-64
2023/06/28 00:59:30;;;;;;;9.55;3.17;;;;;;;-142.75;100.00;76712.03;5064062;28;20430;-64
2023/06/28 01:01:55;;;;;;;7.97;3.00;;;;;;;-142.75;100.00;76700.22;5063396;28;20028;-64
2023/06/28 01:04:21;;;;;;;10.52;3.10;;;;;;;-142.75;100.00;76696.28;5063395;28;20032;-64
2023/06/28 01:06:54;;;;;;;6.47;3.15;;;;;;;-142.75;100.00;76684.47;5063584;28;20115;-65
2023/06/28 01:09:20;;;;;;;6.72;2.78;;;;;;;-142.75;100.00;76678.56;5063357;28;20036;-64
2023/06/28 01:11:47;;;;;;;8.77;2.92;;;;;;;-142.75;100.00;76660.84;5063908;28;20434;-65
2023/06/28 01:14:13;;;;;;;7.82;3.40;;;;;;;-142.75;100.00;76660.84;5046569;28;20388;-66
2023/06/28 01:16:39;;;;;;;7.68;3.65;;;;;;;-142.75;100.00;76660.84;5043121;28;20033;-64
2023/06/28 01:19:07;;;;;;;5.72;2.90;;;;;;;-142.75;100.00;76645.09;5056515;28;20032;-64
2023/06/28 01:21:35;;;;;;;9.38;3.28;;;;;;;-142.75;100.00;76637.22;5063840;28;20115;-64
2023/06/28 01:24:00;;;;;;;7.00;3.38;;;;;;;-142.75;100.00;76625.41;5063833;28;20040;-64
2023/06/28 01:26:27;;;;;;;7.20;3.33;;;;;;;-142.75;100.00;76613.59;5063412;28;20033;-64
2023/06/28 01:28:53;;;;;;;12.63;3.25;;;;;;;-142.75;100.00;76603.75;5063107;28;20032;-65
2023/06/28 01:31:18;;;;;;;8.20;3.33;;;;;;;-142.75;100.00;76605.72;5063341;28;20039;-65
2023/06/28 01:33:45;;;;;;;13.82;3.47;;;;;;;-142.75;100.00;76605.72;5062911;28;20020;-65
2023/06/28 01:36:10;;;;;;;8.02;3.22;;;;;;;-142.75;100.00;76595.88;5055253;28;20028;-65
2023/06/28 01:38:38;;;;;;;12.98;3.10;;;;;;;-142.75;100.00;76586.03;5043187;28;20029;-64
2023/06/28 01:41:05;;;;;;;5.85;3.05;;;;;;;-142.75;100.00;76586.03;5043483;28;20052;-65
2023/06/28 01:43:30;;;;;;;6.95;3.75;;;;;;;-142.75;100.00;76584.06;5043339;28;20021;-65
2023/06/28 01:45:56;;;;;;;7.70;3.25;;;;;;;-142.75;100.00;76562.41;5043441;28;20025;-64
2023/06/28 01:48:22;;;;;;;11.02;2.97;;;;;;;-142.75;100.00;76548.63;5042562;28;20040;-64
2023/06/28 01:50:47;;;;;;;7.90;3.28;;;;;;;-142.75;100.00;76554.53;5042468;28;20029;-65
2023/06/28 01:53:13;;;;;;;8.20;3.08;;;;;;;-142.75;100.00;76568.31;5043081;28;20411;-65
2023/06/28 01:55:38;;;;;;;12.07;3.35;;;;;;;-142.75;100.00;76578.16;5043079;28;20063;-65
2023/06/28 01:58:03;;;;;;;7.43;2.95;;;;;;;-142.75;100.00;76580.13;5043057;28;20025;-64
2023/06/28 02:00:29;;;;;;;5.53;2.58;;;;;;;-142.75;100.00;76578.16;5043115;28;20147;-66
2023/06/28 02:02:54;;;;;;;10.27;2.80;;;;;;;-142.75;100.00;76586.03;5042740;28;20488;-65
2023/06/28 02:05:20;;;;;;;9.05;2.85;;;;;;;-142.75;100.00;76584.06;5042765;28;20025;-65
2023/06/28 02:07:45;;;;;;;8.55;2.65;;;;;;;-142.75;100.00;76576.19;5042622;28;20025;-67
2023/06/28 02:10:11;;;;;;;6.80;2.78;;;;;;;-142.75;100.00;76576.19;5043008;28;20033;-65
2023/06/28 02:12:37;;;;;;;7.63;2.53;;;;;;;-142.75;100.00;76566.34;5042643;28;20029;-65
2023/06/28 02:15:04;;;;;;;7.82;2.90;;;;;;;-142.75;100.00;76566.34;5043030;28;20412;-65
2023/06/28 02:17:30;;;;;;;9.27;2.92;;;;;;;-142.75;100.00;76558.47;5042851;28;20040;-65
2023/06/28 02:19:56;;;;;;;5.38;2.63;;;;;;;-142.75;100.00;76550.59;5042306;28;20645;-65
2023/06/28 02:22:22;;;;;;;5.53;2.90;;;;;;;-142.75;100.00;76554.53;5042056;28;20053;-66
2023/06/28 02:24:47;;;;;;;11.73;2.80;;;;;;;-142.75;100.00;76554.53;5045442;28;20116;-65
2023/06/28 02:27:14;;;;;;;5.47;2.67;;;;;;;-142.75;100.00;76540.75;5042110;28;20071;-65
2023/06/28 02:29:39;;;;;;;6.85;2.50;;;;;;;-142.75;100.00;76540.75;5042641;28;20025;-65
2023/06/28 02:32:05;;;;;;;5.53;2.58;;;;;;;-142.75;100.00;76534.84;5058155;28;20085;-65
2023/06/28 02:34:30;;;;;;;5.00;2.80;;;;;;;-142.75;100.00;76517.16;5062730;28;20033;-65
2023/06/28 02:36:55;;;;;;;7.75;2.85;;;;;;;-142.75;100.00;76515.19;5061918;28;20028;-65
2023/06/28 02:39:21;;;;;;;9.27;2.95;;;;;;;-142.75;100.00;76503.38;5061795;28;20039;-65
2023/06/28 02:41:47;;;;;;;6.18;2.67;;;;;;;-142.75;100.00;76489.59;5062347;28;20032;-65
2023/06/28 02:44:12;;;;;;;8.63;3.47;;;;;;;-142.75;100.00;76471.88;5061706;28;20035;-65
2023/06/28 02:46:38;;;;;;;8.73;3.25;;;;;;;-142.75;100.00;76452.19;5047423;28;20040;-65
2023/06/28 02:49:04;;;;;;;12.73;3.88;;;;;;;-142.75;100.00;76448.25;5042263;28;20052;-64
2023/06/28 02:51:29;;;;;;;8.15;2.95;;;;;;;-142.75;100.00;76462.03;5042465;28;20087;-65
2023/06/28 02:53:54;;;;;;;9.00;3.35;;;;;;;-142.75;100.00;76454.16;5047681;28;20028;-65
2023/06/28 02:56:20;;;;;;;9.30;3.25;;;;;;;-142.75;100.00;76448.25;5061643;28;20116;-66
2023/06/28 02:58:45;;;;;;;8.60;3.20;;;;;;;-142.75;100.00;76464.00;5061849;28;20596;-65
2023/06/28 03:01:10;;;;;;;12.25;3.38;;;;;;;-142.75;100.00;76460.06;5061721;28;20028;-65
2023/06/28 03:03:36;;;;;;;9.82;3.30;;;;;;;-142.75;100.00;76465.97;5061389;28;20048;-65
2023/06/28 03:06:03;;;;;;;9.88;3.47;;;;;;;-142.75;100.00;76460.06;5058851;28;20049;-65
2023/06/28 03:08:29;;;;;;;11.15;3.65;;;;;;;-142.75;100.00;76446.28;5060618;28;20139;-65
2023/06/28 03:10:54;;;;;;;10.82;3.47;;;;;;;-142.75;100.00;76444.31;5062124;28;20419;-65
2023/06/28 03:13:19;;;;;;;10.45;2.92;;;;;;;-142.75;100.00;76446.28;5061627;28;20575;-65
2023/06/28 03:15:45;;;;;;;12.52;3.35;;;;;;;-142.75;100.00;76440.38;5061713;28;20561;-65
2023/06/28 03:18:10;;;;;;;12.32;3.83;;;;;;;-142.75;100.00;76444.31;5061520;28;20104;-65
2023/06/28 03:20:35;;;;;;;10.52;3.15;;;;;;;-142.75;100.00;76430.53;5061243;28;20524;-65
2023/06/28 03:23:03;;;;;;;11.57;3.95;;;;;;;-142.75;100.00;76416.75;5061070;28;20552;-63
2023/06/28 03:25:28;;;;;;;8.63;3.53;;;;;;;-142.75;100.00;76426.59;5060965;28;20050;-64
2023/06/28 03:27:54;;;;;;;6.88;3.80;;;;;;;-142.75;100.00;76436.44;5061087;28;20040;-65
2023/06/28 03:30:19;;;;;;;8.50;3.50;;;;;;;-142.75;100.00;76430.53;5041670;28;20037;-65
2023/06/28 03:32:45;;;;;;;12.20;3.80;;;;;;;-142.75;100.00;76444.31;5040954;28;20063;-65
2023/06/28 03:35:10;;;;;;;11.00;3.70;;;;;;;-142.75;100.00;76426.59;5040723;28;20150;-65
2023/06/28 03:37:35;;;;;;;10.50;4.07;;;;;;;-142.75;100.00;76422.66;5041918;28;20037;-66
2023/06/28 03:40:01;;;;;;;7.15;3.60;;;;;;;-142.75;100.00;76420.69;5041128;28;20032;-65
2023/06/28 03:42:29;;;;;;;9.68;3.67;;;;;;;-142.75;100.00;76412.81;5041079;28;20025;-65
2023/06/28 03:44:54;;;;;;;13.07;4.35;;;;;;;-142.75;100.00;76401.00;5040812;28;20585;-65
2023/06/28 03:47:19;;;;;;;11.30;4.32;;;;;;;-142.75;100.00;76408.88;5041219;28;20176;-65
2023/06/28 03:49:47;;;;;;;6.30;3.50;;;;;;;-142.75;100.00;76402.97;5040657;28;20029;-64
2023/06/28 03:52:13;;;;;;;9.43;3.90;;;;;;;-142.75;100.00;76383.28;5046497;28;20036;-64
2023/06/28 03:54:39;;;;;;;7.38;3.67;;;;;;;-142.75;100.00;76381.31;5041411;28;20033;-65
2023/06/28 03:57:04;;;;;;;10.20;3.88;;;;;;;-142.75;100.00;76367.53;5040879;28;20036;-67
2023/06/28 03:59:30;;;;;;;14.05;3.45;;;;;;;-142.75;100.00;76359.66;5041028;28;20064;-66
2023/06/28 04:01:55;;;;;;;11.30;4.20;;;;;;;-142.75;100.00;76353.78;5041038;28;20094;-65
2023/06/28 04:04:21;;;;;;;10.30;4.13;;;;;;;-142.75;100.00;76345.91;5046520;28;20091;-65
2023/06/28 04:06:46;;;;;;;10.32;3.88;;;;;;;-142.75;100.00;76345.91;5059915;28;20677;-66
2023/06/28 04:09:12;;;;;;;9.82;3.90;;;;;;;-142.75;100.00;76334.09;5060174;28;20059;-66
2023/06/28 04:11:38;;;;;;;14.88;4.45;;;;;;;-142.75;100.00;76334.09;5060761;28;20021;-66
2023/06/28 04:14:03;;;;;;;9.95;4.22;;;;;;;-142.75;100.00;76326.22;5060740;28;20078;-65
2023/06/28 04:16:28;;;;;;;9.82;4.45;;;;;;;-142.75;100.00;76328.19;5045070;28;20400;-65
2023/06/28 04:18:54;;;;;;;8.13;4.05;;;;;;;-142.75;100.00;76336.06;5043125;28;20500;-65
2023/06/28 04:21:19;;;;;;;10.50;4.28;;;;;;;-142.75;100.00;76340.00;5044150;28;20025;-66
2023/06/28 04:23:45;;;;;;;10.05;4.07;;;;;;;-142.75;100.00;76332.13;5044170;28;20079;-65
2023/06/28 04:26:10;;;;;;;10.63;4.10;;;;;;;-142.75;100.00;76351.81;5044580;28;20029;-65
2023/06/28 04:28:36;;;;;;;10.07;3.97;;;;;;;-142.75;100.00;76369.50;5061301;28;20063;-65
2023/06/28 04:31:02;;;;;;;13.15;4.40;;;;;;;-142.75;100.00;76369.50;5050464;28;20029;-65
2023/06/28 04:33:29;;;;;;;6.85;3.75;;;;;;;-142.75;100.00;76369.50;5056695;28;20028;-65
2023/06/28 04:35:56;;;;;;;11.23;4.65;;;;;;;-142.75;100.00;76375.41;5043912;28;20032;-65
2023/06/28 04:38:24;;;;;;;9.38;3.85;;;;;;;-142.75;100.00;76408.88;5061239;28;20141;-65
2023/06/28 04:40:49;;;;;;;9.45;3.63;;;;;;;-142.75;100.00;76391.16;5050021;28;20047;-65
2023/06/28 04:43:15;;;;;;;10.98;4.13;;;;;;;-142.75;100.00;76389.19;5059801;28;20025;-65
2023/06/28 04:45:41;;;;;;;10.75;3.90;;;;;;;-142.75;100.00;76418.72;5064007;28;20476;-65
2023/06/28 04:48:07;;;;;;;9.60;4.13;;;;;;;-142.75;100.00;76399.03;5056809;28;20431;-65
2023/06/28 04:50:37;;;;;;;8.88;4.10;;;;;;;-142.75;100.00;76387.22;5043500;28;20048;-66
2023/06/28 04:53:05;;;;;;;10.10;3.80;;;;;;;-142.75;100.00;76389.19;5058742;28;20063;-65
2023/06/28 04:55:34;;;;;;;9.10;3.92;;;;;;;-142.75;100.00;76371.47;5062326;28;20423;-65
2023/06/28 04:58:04;;;;;;;10.23;3.63;;;;;;;-142.75;100.00;76381.31;5052689;28;20052;-65
2023/06/28 05:00:30;;;;;;;13.82;3.72;;;;;;;-142.75;100.00;76385.25;5042905;28;20127;-65
2023/06/28 05:03:00;;;;;;;9.98;4.00;;;;;;;-142.75;100.00;76393.13;5043475;28;20115;-66
2023/06/28 05:05:26;;;;;;;14.38;4.05;;;;;;;-142.75;100.00;76389.19;5043507;28;20029;-65
2023/06/28 05:07:53;;;;;;;11.07;3.70;;;;;;;-142.75;100.00;76371.47;5063410;28;20496;-64
2023/06/28 05:10:18;;;;;;;8.98;3.60;;;;;;;-142.75;100.00;76389.19;5063549;28;20063;-65
2023/06/28 05:12:44;;;;;;;11.30;4.15;;;;;;;-142.75;100.00;76402.97;5052476;28;20060;-65
2023/06/28 05:15:10;;;;;;;13.02;3.80;;;;;;;-142.75;100.00;76420.69;5046434;28;20635;-65
2023/06/28 05:17:35;;;;;;;7.03;3.60;;;;;;;-142.75;100.00;76424.63;5046105;28;20030;-63
2023/06/28 05:20:00;;;;;;;12.07;3.92;;;;;;;-142.75;100.00;76430.53;5046705;28;20021;-65
2023/06/28 05:22:27;;;;;;;10.90;4.28;;;;;;;-142.75;100.00;76420.69;5046929;28;20706;-65
2023/06/28 05:24:52;;;;;;;13.25;4.40;;;;;;;-142.75;100.00;76416.75;5046560;28;20043;-65
2023/06/28 05:27:19;;;;;;;7.72;3.92;;;;;;;-142.75;100.00;76416.75;5046523;28;20029;-65
2023/06/28 05:29:44;;;;;;;9.75;4.07;;;;;;;-142.75;100.00;76416.75;5046349;28;20366;-66
2023/06/28 05:32:10;;;;;;;12.48;3.75;;;;;;;-142.75;100.00;76430.53;5045633;28;20027;-64
2023/06/28 05:34:35;;;;;;;12.68;4.25;;;;;;;-142.75;100.00;76428.56;5045739;28;20082;-64
2023/06/28 05:37:00;;;;;;;9.48;4.30;;;;;;;-142.75;100.00;76432.50;5046088;28;20106;-65
2023/06/28 05:39:26;;;;;;;14.40;4.25;;;;;;;-142.75;100.00;76432.50;5044838;28;20510;-65
2023/06/28 05:41:51;;;;;;;6.80;3.60;;;;;;;-142.75;100.00;76420.69;5046603;28;20025;-66
2023/06/28 05:44:20;;;;;;;13.07;4.82;;;;;;;-142.75;100.00;76436.44;5045982;28;20060;-66
2023/06/28 05:46:46;;;;;;;7.82;3.97;;;;;;;-142.75;100.00;76426.59;5045865;28;20032;-66
2023/06/28 05:49:11;;;;;;;9.45;4.55;;;;;;;-142.75;100.00;76420.69;5046064;28;20021;-65
2023/06/28 05:51:37;;;;;;;17.13;5.15;;;;;;;-142.75;100.00;76416.75;5046146;28;20047;-66
2023/06/28 05:54:02;;;;;;;8.55;4.53;;;;;;;-142.75;100.00;76418.72;5046056;28;20025;-64
2023/06/28 05:56:28;;;;;;;14.98;4.65;;;;;;;-142.75;100.00;76430.53;5046484;28;20020;-65
2023/06/28 05:58:53;;;;;;;14.13;4.85;;;;;;;-142.75;100.00;76432.50;5045113;28;20017;-65
2023/06/28 06:01:18;;;;;;;13.65;4.43;;;;;;;-142.75;100.00;76430.53;5045437;28;20375;-65
2023/06/28 06:03:44;;;;;;;12.05;4.60;;;;;;;-142.75;100.00;76424.63;5045392;28;21441;-65
2023/06/28 06:06:09;;;;;;;11.27;4.05;;;;;;;-142.75;100.00;76434.47;5045543;28;20025;-65
2023/06/28 06:08:35;;;;;;;12.45;4.97;;;;;;;-142.75;100.00;76426.59;5045287;28;20024;-64
2023/06/28 06:11:01;;;;;;;11.23;4.50;;;;;;;-142.75;100.00;76426.59;5045649;28;20031;-65
2023/06/28 06:13:27;;;;;;;10.68;4.53;;;;;;;-142.75;100.00;76436.44;5042466;28;20661;-64
2023/06/28 06:15:52;;;;;;;12.70;4.63;;;;;;;-142.75;100.00;76436.44;5039026;28;20029;-64
2023/06/28 06:18:18;;;;;;;13.00;5.07;;;;;;;-142.75;100.00;76436.44;5042941;28;20017;-64
2023/06/28 06:20:43;;;;;;;9.85;4.53;;;;;;;-142.75;100.00;76444.31;5038914;28;20035;-65
2023/06/28 06:23:08;;;;;;;11.18;4.38;;;;;;;-142.75;100.00;76428.56;5041454;28;20462;-62
2023/06/28 06:25:34;;;;;;;11.98;4.28;;;;;;;-142.75;100.00;76450.22;5046106;28;20439;-63
2023/06/28 06:28:00;;;;;;;12.98;5.20;;;;;;;-142.75;100.00;76444.31;5038106;28;20112;-64
2023/06/28 06:30:25;;;;;;;8.60;4.35;;;;;;;-142.75;100.00;76452.19;5040058;28;20113;-65
2023/06/28 06:32:51;;;;;;;10.57;4.97;;;;;;;-142.75;100.00;76442.34;5042442;28;20032;-64
2023/06/28 06:35:16;;;;;;;17.30;5.07;;;;;;;-142.75;100.00;76448.25;5041956;28;20020;-64
2023/06/28 06:37:44;;;;;;;13.43;5.32;;;;;;;-142.75;100.00;76452.19;5042515;28;20078;-63
2023/06/28 06:40:10;;;;;;;9.95;4.32;;;;;;;-142.75;100.00;76442.34;5042349;28;20543;-64
2023/06/28 06:42:35;;;;;;;10.30;4.88;;;;;;;-142.75;100.00;76440.38;5043582;28;20033;-64
2023/06/28 06:45:00;;;;;;;15.50;5.65;;;;;;;-142.75;100.00;76428.56;5042248;28;20026;-64
2023/06/28 06:47:26;;;;;;;12.77;4.43;;;;;;;-142.75;100.00;76436.44;5041410;28;20025;-61
2023/06/28 06:49:51;;;;;;;9.95;4.70;;;;;;;-142.75;100.00;76428.56;5041111;28;20511;-65
2023/06/28 06:52:17;;;;;;;12.20;5.18;;;;;;;-142.75;100.00;76414.78;5044445;28;20114;-64
2023/06/28 06:54:43;;;;;;;17.13;6.20;;;;;;;-142.75;100.00;76412.81;5047198;28;20033;-64
2023/06/28 06:57:08;;;;;;;13.55;5.50;;;;;;;-142.75;100.00;76424.63;5041794;28;20388;-64
2023/06/28 06:59:33;;;;;;;12.25;4.45;;;;;;;-142.75;100.00;76408.88;5047169;28;20419;-67
2023/06/28 07:01:59;;;;;;;12.70;5.07;;;;;;;-142.75;100.00;76408.88;5056377;28;20020;-63
2023/06/28 07:04:24;;;;;;;12.07;5.13;;;;;;;-142.75;100.00;76404.94;5043984;28;20117;-64
2023/06/28 07:06:50;;;;;;;11.70;5.15;;;;;;;-142.75;100.00;76399.03;5044658;28;20523;-64
2023/06/28 07:09:16;;;;;;;17.90;6.10;;;;;;;-142.75;100.00;76410.84;5044652;28;20094;-64
2023/06/28 07:11:42;;;;;;;11.93;4.88;;;;;;;-142.75;100.00;76418.72;5044827;28;20063;-64
2023/06/28 07:14:08;;;;;;;12.43;4.55;;;;;;;-142.75;100.00;76418.72;5047184;28;20679;-64
2023/06/28 07:16:34;;;;;;;9.68;4.47;;;;;;;-142.75;100.00;76401.00;5044972;28;20112;-65
2023/06/28 07:18:59;;;;;;;11.30;5.47;;;;;;;-142.75;100.00;76414.78;5043329;28;20060;-65
2023/06/28 07:21:24;;;;;;;10.15;4.65;;;;;;;-142.75;100.00;76397.06;5044820;28;20104;-64
2023/06/28 07:23:50;;;;;;;9.82;4.30;;;;;;;-142.75;100.00;76381.31;5044183;28;20439;-63
2023/06/28 07:26:15;;;;;;;12.93;4.85;;;;;;;-142.75;100.00;76377.38;5045784;28;20508;-65
2023/06/28 07:28:41;;;;;;;11.38;4.82;;;;;;;-142.75;100.00;76381.31;5042803;28;20147;-65
2023/06/28 07:31:06;;;;;;;9.45;4.70;;;;;;;-142.75;100.00;76365.56;5043908;28;20021;-64
2023/06/28 07:33:32;;;;;;;8.82;4.70;;;;;;;-142.75;100.00;76365.56;5044549;28;20017;-64
2023/06/28 07:35:57;;;;;;;14.02;5.53;;;;;;;-142.75;100.00;76353.78;5045068;28;20029;-64
2023/06/28 07:38:23;;;;;;;11.35;5.03;;;;;;;-142.75;100.00;76361.63;5044537;28;20412;-65
2023/06/28 07:40:49;;;;;;;11.35;4.55;;;;;;;-142.75;100.00;76365.56;5044259;28;20064;-64
2023/06/28 07:43:16;;;;;;;14.20;4.93;;;;;;;-142.75;100.00;76345.91;5043542;28;20455;-65
2023/06/28 07:45:41;;;;;;;11.75;4.85;;;;;;;-142.75;100.00;76334.09;5044434;28;20486;-65
2023/06/28 07:48:07;;;;;;;9.45;4.50;;;;;;;-142.75;100.00;76328.19;5048939;28;20116;-65
2023/06/28 07:50:33;;;;;;;10.80;4.60;;;;;;;-142.75;100.00;76355.72;5047980;28;20444;-65
2023/06/28 07:52:58;;;;;;;15.15;4.90;;;;;;;-142.75;100.00;76330.16;5048119;28;20373;-64
2023/06/28 07:55:23;;;;;;;10.35;4.60;;;;;;;-142.75;100.00;76310.47;5048521;28;20137;-64
2023/06/28 07:57:49;;;;;;;14.50;4.40;;;;;;;-142.75;100.00;76300.63;5048230;28;20439;-64
2023/06/28 08:00:15;;;;;;;15.30;5.00;;;;;;;-142.75;100.00;76286.84;5048167;28;20576;-63
2023/06/28 08:02:40;;;;;;;12.10;5.55;;;;;;;-142.75;100.00;76302.59;5048167;28;20060;-63
2023/06/28 08:05:07;;;;;;;11.25;5.28;;;;;;;-142.75;100.00;76298.66;5047971;28;20051;-63
2023/06/28 08:07:34;;;;;;;13.63;4.95;;;;;;;-142.75;100.00;76286.84;5048321;28;20028;-64
2023/06/28 08:09:59;;;;;;;13.85;5.72;;;;;;;-142.75;100.00;76271.09;5048279;28;20025;-63
2023/06/28 08:12:24;;;;;;;13.48;5.30;;;;;;;-142.75;100.00;76253.38;5048038;28;20890;-64
2023/06/28 08:14:50;;;;;;;15.18;6.05;;;;;;;-142.75;100.00;76233.69;5047904;28;20074;-64
2023/06/28 08:17:15;;;;;;;12.18;5.20;;;;;;;-142.75;100.00;76206.13;5047961;28;20575;-64
2023/06/28 08:19:40;;;;;;;11.43;5.50;;;;;;;-142.75;100.00;76176.63;5047933;28;20277;-63
2023/06/28 08:22:06;;;;;;;12.60;6.07;;;;;;;-142.75;100.00;76174.66;5047729;28;20499;-62
2023/06/28 08:24:31;;;;;;;13.55;5.32;;;;;;;-142.75;100.00;76172.69;5047978;28;20021;-64
2023/06/28 08:26:56;;;;;;;14.93;5.50;;;;;;;-142.75;100.00;76180.56;5047938;28;20033;-64
2023/06/28 08:29:22;;;;;;;12.55;5.65;;;;;;;-142.75;100.00;76176.63;5047766;28;20032;-64
2023/06/28 08:31:48;;;;;;;10.95;5.85;;;;;;;-142.75;100.00;76192.38;5067784;28;20513;-63
2023/06/28 08:34:15;;;;;;;9.45;5.10;;;;;;;-142.75;100.00;76172.69;5067228;28;20392;-64
2023/06/28 08:36:41;;;;;;;11.13;5.32;;;;;;;-142.75;100.00;76156.94;5067403;28;20461;-64
2023/06/28 08:39:06;;;;;;;11.40;5.63;;;;;;;-142.75;100.00;76149.06;5067194;28;20024;-64
2023/06/28 08:41:33;;;;;;;15.48;6.35;;;;;;;-142.75;100.00;76143.16;5067879;28;20456;-63
2023/06/28 08:44:01;;;;;;;11.40;5.13;;;;;;;-142.75;100.00;76133.31;5067402;28;20032;-63
2023/06/28 08:46:29;;;;;;;13.18;6.05;;;;;;;-142.75;100.00;76129.38;5067328;28;20046;-63
2023/06/28 08:48:55;;;;;;;11.70;6.03;;;;;;;-142.75;100.00;76170.72;5067456;28;20508;-63
2023/06/28 08:51:21;;;;;;;12.52;5.07;;;;;;;-142.75;100.00;76162.84;5067042;28;20419;-64
2023/06/28 08:53:48;;;;;;;12.35;5.45;;;;;;;-142.75;100.00;76147.09;5053784;28;20025;-64
2023/06/28 08:56:15;;;;;;;10.05;6.00;;;;;;;-142.75;100.00;76133.31;5046137;28;20036;-63
2023/06/28 08:58:41;;;;;;;12.63;5.78;;;;;;;-142.75;100.00;76115.59;5046460;28;20067;-63
2023/06/28 09:01:08;;;;;;;12.18;5.57;;;;;;;-142.75;100.00;76121.50;5047080;28;20025;-62
2023/06/28 09:03:40;;;;;;;12.38;6.68;;;;;;;-142.75;100.00;76097.88;5047627;28;20158;-64
2023/06/28 09:06:05;;;;;;;14.02;5.78;;;;;;;-142.75;100.00;76105.75;5047176;28;20033;-63
2023/06/28 09:08:31;;;;;;;19.73;7.28;;;;;;;-142.75;100.00;76090.00;5047391;28;20546;-63
2023/06/28 09:10:59;;;;;;;11.65;7.00;;;;;;;-142.75;100.00;76080.16;5046803;28;20028;-65
2023/06/28 09:13:25;;;;;;;17.55;6.82;;;;;;;-142.75;100.00;76086.06;5060873;28;20027;-64
2023/06/28 09:15:53;;;;;;;15.50;7.00;;;;;;;-142.75;100.00;76062.47;5066814;28;20032;-65
2023/06/28 09:18:19;;;;;;;17.05;7.38;;;;;;;-142.75;100.00;76064.44;5064817;28;21924;-65
2023/06/28 09:20:52;;;;;;;13.50;6.40;;;;;;;-142.75;100.00;76046.72;5058413;28;20051;-64
2023/06/28 09:23:25;;;;;;;18.92;7.68;;;;;;;-142.75;100.00;76064.44;5066455;28;20029;-64
2023/06/28 09:25:51;;;;;;;13.10;7.25;;;;;;;-142.75;100.00;76054.59;5051120;28;20028;-64
2023/06/28 09:28:17;;;;;;;18.05;7.28;;;;;;;-142.75;100.00;76038.84;5043471;28;20033;-65
2023/06/28 09:30:42;;;;;;;14.23;7.90;;;;;;;-142.75;100.00;76034.91;5047929;28;20100;-64
2023/06/28 09:33:08;;;;;;;16.63;8.48;;;;;;;-142.75;100.00;76038.84;5048488;28;20181;-64
2023/06/28 09:35:36;;;;;;;16.67;8.32;;;;;;;-142.75;100.00;76042.78;5047816;28;20032;-65
2023/06/28 09:38:06;;;;;;;16.05;8.02;;;;;;;-142.75;100.00;76030.97;5047519;28;20028;-66
2023/06/28 09:40:35;;;;;;;14.48;9.38;;;;;;;-142.75;100.00;76060.50;5045983;28;20020;-64
2023/06/28 09:43:01;;;;;;;15.43;7.88;;;;;;;-142.75;100.00;76070.34;5044709;28;20032;-65
2023/06/28 09:45:32;;;;;;;17.35;9.32;;;;;;;-142.75;100.00;76050.66;5045419;28;20032;-65
2023/06/28 09:48:02;;;;;;;18.17;8.88;;;;;;;-142.75;100.00;76058.53;5065030;28;20071;-64
2023/06/28 09:50:44;;;;;;;18.48;8.75;;;;;;;-142.75;100.00;76042.78;5065724;28;20024;-64
2023/06/28 09:53:13;;;;;;;19.77;9.65;;;;;;;-142.75;100.00;76050.66;5065440;28;20028;-65
2023/06/28 09:55:43;;;;;;;19.25;8.82;;;;;;;-142.75;100.00;76048.69;5046605;28;20539;-65
2023/06/28 09:58:11;;;;;;;19.63;8.23;;;;;;;-142.75;100.00;76027.03;5045448;28;20623;-64
2023/06/28 10:00:38;;;;;;;19.23;9.60;;;;;;;-142.75;100.00;76021.13;5045012;28;20031;-64
2023/06/28 10:03:08;;;;;;;17.02;8.77;;;;;;;-142.75;100.00;76019.16;5057420;28;20024;-64
2023/06/28 10:05:35;;;;;;;15.10;9.23;;;;;;;-142.75;100.00;76011.28;5043810;28;20055;-64
2023/06/28 10:08:03;;;;;;;18.73;8.75;;;;;;;-142.75;100.00;76001.44;5048555;28;20056;-65
2023/06/28 10:10:30;;;;;;;16.92;8.27;;;;;;;-142.75;100.00;76023.09;5052635;28;20040;-64
2023/06/28 10:12:58;;;;;;;16.52;8.57;;;;;;;-142.75;100.00;75987.66;5064960;28;20106;-64
2023/06/28 10:15:24;;;;;;;17.38;9.93;;;;;;;-142.75;100.00;75995.53;5064618;28;20269;-65
2023/06/28 10:17:53;;;;;;;19.13;9.40;;;;;;;-142.75;100.00;75989.63;5044537;28;20074;-64
2023/06/28 10:20:19;;;;;;;17.25;8.88;;;;;;;-142.75;100.00;75989.63;5044808;28;20111;-65
2023/06/28 10:22:45;;;;;;;19.58;9.23;;;;;;;-142.75;100.00;75995.53;5045049;28;20457;-64
2023/06/28 10:25:11;;;;;;;20.10;9.35;;;;;;;-142.75;100.00;75997.50;5045867;28;20043;-64
2023/06/28 10:27:37;;;;;;;15.75;8.98;;;;;;;-142.75;100.00;75981.75;5036446;28;20044;-63
2023/06/28 10:30:03;;;;;;;16.40;9.68;;;;;;;-142.75;100.00;75969.94;5041517;28;20025;-63
2023/06/28 10:32:28;;;;;;;14.52;8.60;;;;;;;-142.75;100.00;75975.84;5051858;28;20020;-64
2023/06/28 10:34:56;;;;;;;16.13;9.00;;;;;;;-142.75;100.00;75956.19;5063519;28;20036;-64
2023/06/28 10:37:23;;;;;;;19.48;9.73;;;;;;;-142.75;100.00;75946.34;5061090;28;20013;-64
2023/06/28 10:39:53;;;;;;;16.73;9.70;;;;;;;-142.75;100.00;75948.31;5046926;28;20044;-64
2023/06/28 10:42:21;;;;;;;19.60;10.32;;;;;;;-142.75;100.00;75948.31;5045477;28;20113;-64
2023/06/28 10:44:54;;;;;;;17.70;10.43;;;;;;;-142.75;100.00;75975.84;5040798;28;20024;-65
2023/06/28 10:47:20;;;;;;;16.58;10.88;;;;;;;-142.75;100.00;75995.53;5041177;28;20131;-66
2023/06/28 10:50:08;;;;;;;22.75;11.10;;;;;;;-142.75;100.00;75991.59;5051640;28;20036;-64
2023/06/28 10:52:35;;;;;;;16.23;9.50;;;;;;;-142.75;100.00;76001.44;5057942;28;20806;-65
2023/06/28 10:55:02;;;;;;;19.23;10.38;;;;;;;-142.75;100.00;75987.66;5052763;28;20057;-65
2023/06/28 10:57:38;;;;;;;22.10;10.00;;;;;;;-142.75;100.00;75987.66;5059424;28;20024;-65
2023/06/28 11:00:09;;;;;;;23.27;9.88;;;;;;;-142.75;100.00;75995.53;5065100;28;20477;-65